首页
METAR-TAF:

METAR-TAF

机场 :

金奈国际机场

金奈, 印度

纬度: 13-00N, 经度: 080-11E, 海拔: 10米

当前天气观测

该预报发布于32分钟前的07:30 UTC
风速10节,风向
温度 36°C
湿度 57%
气压 1005 hPa
能見度: 8000
散云层高于2000英尺

METAR: VOMM 220730Z 09010KT 8000 SCT020 36/26 Q1005 NOSIG

时间: 13:32 (08:02 UTC)

预报

该预报发布于3小时和2分钟前的05:00 UTC
预报有效从22日的 06点(UTC)到 23日的 12点(UTC)
风速10节,风向东转东南
能見度: 6000
少量云层高于2000英尺
散云层高于10000英尺
成为
从 22日的 18点(UTC)到 22日的 19点(UTC)
风速10节,风向
成为
从 23日的 06点(UTC)到 23日的 07点(UTC)
风速10节,风向东转东南

TAF: VOMM 220500Z 2206/2312 12010KT 6000 FEW020 SCT100 BECMG 2218/2219 18010KT BECMG 2306/2307 12010KT

超过4000个机场的气象观测和天气预报(METAR&TAF报告)。

可查询的气象台以黄色和红色小点在地图上表示。

将鼠标移到小点上方,可查看气象台名称。

然后点击查看天气观测和预报。

如需切换地图:点击带黑十字的绿色按钮放大地图;点击带横线的绿色按钮缩小地图;或者点击绿色箭头查看邻近地区的地图。


METAR-TAF: